Time;durP1;ratioP1;P1;durP2;ratioP2;P2;SDS_P1;SDS_P2;PMS_P1;PMS_P2;Temp;Humidity;BMP_temperature;BMP_pressure;BME280_temperature;BME280_humidity;BME280_pressure;Samples;Min_cycle;Max_cycle;Signal;HPM_P1;HPM_P2
2022/06/10 00:00:55;;;;;;;13.13;3.17;;;16.00;99.90;;;;;;4987734;28;25055;-63
2022/06/10 00:03:24;;;;;;;16.77;2.65;;;16.00;99.90;;;;;;4992877;28;25073;-62
2022/06/10 00:05:51;;;;;;;12.77;3.10;;;16.00;99.90;;;;;;4987419;28;25061;-63
2022/06/10 00:08:23;;;;;;;15.70;3.38;;;16.00;99.90;;;;;;4987199;28;25148;-63
2022/06/10 00:10:50;;;;;;;18.70;3.40;;;16.00;99.90;;;;;;5004744;28;25056;-63
2022/06/10 00:13:20;;;;;;;12.63;2.78;;;16.00;99.90;;;;;;4984575;28;25134;-63
2022/06/10 00:15:47;;;;;;;15.00;2.60;;;16.00;99.90;;;;;;4985647;28;25130;-63
2022/06/10 00:18:15;;;;;;;12.85;2.78;;;16.00;99.90;;;;;;4998006;28;25083;-62
2022/06/10 00:20:41;;;;;;;12.20;2.58;;;16.00;99.90;;;;;;4996312;28;25077;-62
2022/06/10 00:23:07;;;;;;;13.30;2.85;;;16.00;99.90;;;;;;5009335;28;25065;-62
2022/06/10 00:25:33;;;;;;;12.52;2.97;;;16.10;99.90;;;;;;4994411;28;25096;-62
2022/06/10 00:27:59;;;;;;;15.50;2.97;;;16.00;99.90;;;;;;4988503;28;25081;-63
2022/06/10 00:30:28;;;;;;;11.30;2.53;;;16.10;99.90;;;;;;4987686;28;25111;-63
2022/06/10 00:32:54;;;;;;;11.40;2.88;;;16.20;99.90;;;;;;4984929;28;25062;-62
2022/06/10 00:35:20;;;;;;;15.93;3.40;;;16.10;99.90;;;;;;4987956;28;25070;-62
2022/06/10 00:37:46;;;;;;;13.05;2.80;;;16.10;99.90;;;;;;4985017;28;25151;-62
2022/06/10 00:40:22;;;;;;;15.10;3.05;;;16.00;99.90;;;;;;4988294;28;25060;-62
2022/06/10 00:42:49;;;;;;;16.63;3.28;;;16.10;99.90;;;;;;4986872;28;25106;-61
2022/06/10 00:45:48;;;;;;;12.07;3.08;;;16.10;99.90;;;;;;4985796;28;25058;-62
2022/06/10 00:48:24;;;;;;;14.70;3.65;;;16.20;99.90;;;;;;4981216;28;25062;-61
2022/06/10 00:50:50;;;;;;;15.45;3.05;;;16.30;99.90;;;;;;4988326;28;25056;-62
2022/06/10 00:53:19;;;;;;;13.07;3.00;;;16.20;99.90;;;;;;4988025;28;25134;-63
2022/06/10 00:55:46;;;;;;;17.80;3.47;;;16.20;99.90;;;;;;4984855;28;25062;-62
2022/06/10 00:58:20;;;;;;;14.60;3.30;;;16.30;99.90;;;;;;4985847;28;25064;-62
2022/06/10 01:00:45;;;;;;;17.05;3.42;;;16.20;99.90;;;;;;4982648;28;25062;-62
2022/06/10 01:03:11;;;;;;;13.60;3.58;;;16.20;99.90;;;;;;4980659;28;25078;-62
2022/06/10 01:05:37;;;;;;;16.65;3.90;;;16.30;99.90;;;;;;4985083;28;25051;-64
2022/06/10 01:08:06;;;;;;;10.85;3.40;;;16.20;99.90;;;;;;4981531;28;25102;-62
2022/06/10 01:10:46;;;;;;;12.27;3.80;;;16.10;99.90;;;;;;4983298;28;25081;-62
2022/06/10 01:13:21;;;;;;;13.90;3.63;;;16.20;99.90;;;;;;4988573;28;25083;-62
2022/06/10 01:16:02;;;;;;;14.23;3.50;;;16.20;99.90;;;;;;4983718;28;25139;-62
2022/06/10 01:18:34;;;;;;;12.60;3.38;;;16.20;99.90;;;;;;4986463;28;25413;-63
2022/06/10 01:21:38;;;;;;;13.43;3.83;;;16.20;99.90;;;;;;4981437;28;25074;-62
2022/06/10 01:24:36;;;;;;;14.80;4.13;;;16.20;99.90;;;;;;4982829;28;25161;-63
2022/06/10 01:30:28;;;;;;;15.80;3.30;;;16.30;99.90;;;;;;4992144;28;25082;-63
2022/06/10 01:33:32;;;;;;;9.90;3.05;;;16.30;99.90;;;;;;4996038;28;25073;-62
2022/06/10 01:36:20;;;;;;;16.38;3.00;;;16.30;99.90;;;;;;4975156;28;25069;-61
2022/06/10 01:39:04;;;;;;;15.93;3.90;;;16.30;99.90;;;;;;4989497;28;25155;-62
2022/06/10 01:41:56;;;;;;;12.88;3.35;;;16.30;99.90;;;;;;4993027;28;25156;-63
2022/06/10 01:44:49;;;;;;;18.38;3.08;;;16.30;99.90;;;;;;4991652;28;25065;-63
2022/06/10 01:47:21;;;;;;;13.13;3.13;;;16.20;99.90;;;;;;4986467;28;25155;-62
2022/06/10 01:50:14;;;;;;;15.30;3.65;;;16.20;99.90;;;;;;4987436;28;25127;-62
2022/06/10 01:52:48;;;;;;;15.88;3.63;;;16.30;99.90;;;;;;4996819;28;25092;-61
2022/06/10 01:55:28;;;;;;;18.45;3.47;;;16.30;99.90;;;;;;4999120;28;25125;-63
2022/06/10 01:58:05;;;;;;;22.23;6.25;;;16.40;99.90;;;;;;4994914;28;25077;-62
2022/06/10 02:00:34;;;;;;;10.85;3.53;;;16.40;99.90;;;;;;4987450;28;25056;-62
2022/06/10 02:03:08;;;;;;;11.73;3.25;;;16.40;99.90;;;;;;4986361;28;25104;-62
2022/06/10 02:05:40;;;;;;;14.00;3.90;;;16.40;99.90;;;;;;4985647;28;25065;-61
2022/06/10 02:08:11;;;;;;;15.20;3.17;;;16.30;99.90;;;;;;4988273;28;25076;-62
2022/06/10 02:11:04;;;;;;;10.05;2.95;;;16.30;99.90;;;;;;4991444;28;25126;-63
2022/06/10 02:13:34;;;;;;;15.38;2.95;;;16.20;99.90;;;;;;4992360;28;25120;-63
2022/06/10 02:16:03;;;;;;;15.27;3.38;;;16.30;99.90;;;;;;4983670;28;25068;-62
2022/06/10 02:18:35;;;;;;;14.60;3.35;;;16.40;99.90;;;;;;4986106;28;25049;-62
2022/06/10 02:21:06;;;;;;;12.32;3.00;;;16.40;99.90;;;;;;4993406;28;25075;-62
2022/06/10 02:23:39;;;;;;;9.90;3.08;;;16.40;99.90;;;;;;4991776;28;25053;-62
2022/06/10 02:26:07;;;;;;;12.60;2.72;;;16.30;99.90;;;;;;4989614;28;25067;-62
2022/06/10 02:28:48;;;;;;;14.63;3.22;;;16.30;99.90;;;;;;4988282;28;25059;-62
2022/06/10 02:31:20;;;;;;;14.75;3.90;;;16.50;99.90;;;;;;4988308;28;25079;-62
2022/06/10 02:33:48;;;;;;;13.88;3.40;;;16.30;99.90;;;;;;4998044;28;25077;-61
2022/06/10 02:36:21;;;;;;;16.80;3.55;;;16.20;99.90;;;;;;4993182;28;25061;-63
2022/06/10 02:39:03;;;;;;;15.40;3.50;;;16.20;99.90;;;;;;4993066;28;25145;-61
2022/06/10 02:41:35;;;;;;;12.52;3.38;;;16.30;99.90;;;;;;4982422;28;25108;-62
2022/06/10 02:44:35;;;;;;;17.60;3.30;;;16.30;99.90;;;;;;4997239;28;25077;-62
2022/06/10 02:47:24;;;;;;;15.00;3.17;;;16.30;99.90;;;;;;4989333;28;25085;-62
2022/06/10 02:49:50;;;;;;;14.60;2.90;;;16.30;99.90;;;;;;4985456;28;25131;-63
2022/06/10 02:52:18;;;;;;;15.90;2.83;;;16.40;99.90;;;;;;4988376;28;26210;-62
2022/06/10 02:54:44;;;;;;;15.65;2.90;;;16.30;99.90;;;;;;4993120;28;25144;-61
2022/06/10 02:57:14;;;;;;;12.05;2.60;;;16.20;99.90;;;;;;4994257;28;25087;-62
2022/06/10 03:02:56;;;;;;;12.07;2.38;;;16.30;99.90;;;;;;4986963;28;25126;-61
2022/06/10 03:05:33;;;;;;;12.02;2.60;;;16.20;99.90;;;;;;4988971;28;25053;-63
2022/06/10 03:08:23;;;;;;;12.18;2.30;;;16.30;99.90;;;;;;4996248;28;25136;-61
2022/06/10 03:11:14;;;;;;;12.82;2.63;;;16.30;99.90;;;;;;4999401;28;25069;-61
2022/06/10 03:14:11;;;;;;;10.38;2.15;;;16.20;99.90;;;;;;4996151;28;25150;-63
2022/06/10 03:16:49;;;;;;;11.10;3.03;;;16.20;99.90;;;;;;4996659;28;25133;-62
2022/06/10 03:19:36;;;;;;;10.90;2.60;;;16.10;99.90;;;;;;4995005;28;25070;-62
2022/06/10 03:22:24;;;;;;;12.88;3.05;;;15.90;99.90;;;;;;4999061;28;25139;-63
2022/06/10 03:25:04;;;;;;;13.48;2.78;;;15.90;99.90;;;;;;4997011;28;25097;-65
2022/06/10 03:27:53;;;;;;;9.10;2.40;;;15.90;99.90;;;;;;4990310;28;25140;-64
2022/06/10 03:30:24;;;;;;;13.80;2.53;;;16.00;99.90;;;;;;4990815;28;25138;-62
2022/06/10 03:33:05;;;;;;;8.05;2.15;;;16.00;99.90;;;;;;4998797;28;25089;-64
2022/06/10 03:35:38;;;;;;;7.50;2.80;;;16.10;99.90;;;;;;4993530;28;25076;-63
2022/06/10 03:38:05;;;;;;;12.68;2.85;;;16.20;99.90;;;;;;4999805;28;25104;-62
2022/06/10 03:40:32;;;;;;;12.07;2.30;;;16.20;99.90;;;;;;4992727;28;25089;-63
2022/06/10 03:43:00;;;;;;;12.50;2.05;;;16.20;99.90;;;;;;4999239;28;25089;-63
2022/06/10 03:45:32;;;;;;;8.75;2.15;;;16.30;99.90;;;;;;4987252;28;25069;-62
2022/06/10 03:47:58;;;;;;;8.30;1.85;;;16.30;99.90;;;;;;5007143;28;25066;-62
2022/06/10 03:50:30;;;;;;;9.15;2.60;;;16.40;99.90;;;;;;4997232;28;25060;-63
2022/06/10 03:52:56;;;;;;;;;;;16.50;99.90;;;;;;4993081;28;25086;-63
2022/06/10 03:55:21;;;;;;;15.40;3.67;;;16.50;99.90;;;;;;4992534;28;25061;-61
2022/06/10 03:57:48;;;;;;;12.18;2.80;;;16.30;99.90;;;;;;4984923;28;25059;-62
2022/06/10 04:00:26;;;;;;;12.10;2.90;;;16.30;99.90;;;;;;4996289;28;25059;-62
2022/06/10 04:02:52;;;;;;;12.75;2.88;;;16.30;99.90;;;;;;4995222;28;25120;-62
2022/06/10 04:05:19;;;;;;;15.50;3.65;;;16.30;99.90;;;;;;4996910;28;25078;-63
2022/06/10 04:07:45;;;;;;;13.38;3.50;;;16.30;99.90;;;;;;4988619;28;25066;-61
2022/06/10 04:10:16;;;;;;;11.52;3.45;;;16.30;99.90;;;;;;4987679;28;25070;-62
2022/06/10 04:12:42;;;;;;;22.98;5.03;;;16.30;99.90;;;;;;4986906;28;25051;-62
2022/06/10 04:15:08;;;;;;;18.85;3.85;;;16.40;99.90;;;;;;4985284;28;25117;-62
2022/06/10 04:17:34;;;;;;;17.50;4.45;;;16.50;99.90;;;;;;4981560;28;25100;-63
2022/06/10 04:20:00;;;;;;;17.10;3.60;;;16.40;99.90;;;;;;4998550;28;25069;-63
2022/06/10 04:22:26;;;;;;;16.38;3.75;;;16.40;99.90;;;;;;4986978;28;25136;-63
2022/06/10 04:24:52;;;;;;;17.08;3.42;;;16.30;99.90;;;;;;4995499;28;25093;-63
2022/06/10 04:27:18;;;;;;;15.60;3.67;;;16.40;99.90;;;;;;4989504;28;25075;-62
2022/06/10 04:29:44;;;;;;;13.38;4.32;;;16.50;99.90;;;;;;4989573;28;25065;-63
2022/06/10 04:32:10;;;;;;;11.02;3.17;;;16.50;99.90;;;;;;4984324;28;25080;-64
2022/06/10 04:34:36;;;;;;;17.77;3.20;;;16.50;99.90;;;;;;4983700;28;25095;-64
2022/06/10 04:37:03;;;;;;;15.55;3.10;;;16.40;99.90;;;;;;4984945;28;25110;-62
2022/06/10 04:39:29;;;;;;;11.52;2.90;;;16.40;99.90;;;;;;4984104;28;25054;-62
2022/06/10 04:41:55;;;;;;;11.80;2.90;;;16.40;99.90;;;;;;4985047;28;25096;-62
2022/06/10 04:44:21;;;;;;;16.38;3.55;;;16.40;99.90;;;;;;4984487;28;25073;-61
2022/06/10 04:46:46;;;;;;;17.75;3.17;;;16.40;99.90;;;;;;4985159;28;25104;-62
2022/06/10 04:49:12;;;;;;;12.45;2.95;;;16.40;99.90;;;;;;4991932;28;25081;-61
2022/06/10 04:51:37;;;;;;;15.93;3.42;;;16.40;99.90;;;;;;4993253;28;25067;-62
2022/06/10 04:54:05;;;;;;;7.88;2.70;;;16.30;99.90;;;;;;4986104;28;25140;-63
2022/06/10 04:56:31;;;;;;;14.57;3.47;;;16.40;99.90;;;;;;4988470;28;25074;-62
2022/06/10 04:58:56;;;;;;;11.05;3.47;;;16.40;99.90;;;;;;4985050;28;25065;-63
2022/06/10 05:01:22;;;;;;;15.30;3.92;;;16.40;99.90;;;;;;4983670;28;25083;-63
2022/06/10 05:03:48;;;;;;;15.30;3.45;;;16.30;99.90;;;;;;4983533;28;25060;-62
2022/06/10 05:06:14;;;;;;;11.77;3.28;;;16.40;99.90;;;;;;4992531;28;25052;-63
2022/06/10 05:08:40;;;;;;;15.27;4.13;;;16.50;99.90;;;;;;4989659;28;25063;-62
2022/06/10 05:11:07;;;;;;;11.32;3.40;;;16.40;99.90;;;;;;4986715;28;25162;-63
2022/06/10 05:13:33;;;;;;;12.63;2.80;;;16.50;99.90;;;;;;4983385;28;25069;-62
2022/06/10 05:15:58;;;;;;;13.18;3.22;;;16.60;99.90;;;;;;4984421;28;25132;-62
2022/06/10 05:18:25;;;;;;;15.25;3.08;;;16.60;99.90;;;;;;4984075;28;25133;-63
2022/06/10 05:20:50;;;;;;;19.15;3.13;;;16.60;99.90;;;;;;4990450;28;25532;-62
2022/06/10 05:23:19;;;;;;;14.50;3.50;;;16.60;99.90;;;;;;4988940;28;25068;-61
2022/06/10 05:25:45;;;;;;;12.25;2.90;;;16.60;99.90;;;;;;4974083;28;25079;-62
2022/06/10 05:28:12;;;;;;;16.60;3.78;;;16.70;99.90;;;;;;4993716;28;25054;-61
2022/06/10 05:30:38;;;;;;;15.70;4.90;;;16.60;99.90;;;;;;4985041;28;25131;-62
2022/06/10 05:33:06;;;;;;;20.23;3.53;;;16.60;99.90;;;;;;4982866;28;25151;-62
2022/06/10 05:35:31;;;;;;;15.00;3.78;;;16.60;99.90;;;;;;4983602;28;25168;-63
2022/06/10 05:37:58;;;;;;;11.00;2.92;;;16.70;99.90;;;;;;4984348;28;25063;-65
2022/06/10 05:40:26;;;;;;;12.32;3.53;;;16.70;99.90;;;;;;4999720;28;25082;-63
2022/06/10 05:42:52;;;;;;;11.50;3.10;;;16.70;99.90;;;;;;4992510;28;25073;-62
2022/06/10 05:45:19;;;;;;;12.55;3.70;;;16.70;99.90;;;;;;4983120;28;25107;-61
2022/06/10 05:47:48;;;;;;;15.98;3.78;;;16.70;99.90;;;;;;4985558;28;25071;-62
2022/06/10 05:50:21;;;;;;;17.50;3.28;;;16.80;99.90;;;;;;4986004;28;25211;-64
2022/06/10 05:52:48;;;;;;;14.73;4.00;;;16.80;99.90;;;;;;4986444;28;25074;-62
2022/06/10 05:55:14;;;;;;;13.38;3.20;;;16.70;99.90;;;;;;4991836;28;25052;-62
2022/06/10 05:57:41;;;;;;;15.45;3.88;;;16.70;99.90;;;;;;4993001;28;25073;-62
2022/06/10 06:00:13;;;;;;;16.50;3.35;;;16.80;99.90;;;;;;4994475;28;25158;-62
2022/06/10 06:02:39;;;;;;;;;;;16.80;99.90;;;;;;5000358;28;27065;-63
2022/06/10 06:05:05;;;;;;;10.77;3.30;;;16.90;99.90;;;;;;5005601;28;24059;-63
2022/06/10 06:07:31;;;;;;;12.30;3.10;;;16.90;99.90;;;;;;5000575;28;25093;-62
2022/06/10 06:09:57;;;;;;;17.08;3.40;;;17.00;99.90;;;;;;5000016;28;25072;-62
2022/06/10 06:12:23;;;;;;;11.05;3.13;;;17.00;99.90;;;;;;4998895;28;25064;-64
2022/06/10 06:14:49;;;;;;;15.70;2.75;;;17.10;99.90;;;;;;5013343;28;25057;-63
2022/06/10 06:17:16;;;;;;;15.50;3.92;;;17.10;99.90;;;;;;4997637;28;25042;-63
2022/06/10 06:19:42;;;;;;;13.52;3.47;;;17.10;99.90;;;;;;5002574;28;25270;-63
2022/06/10 06:22:08;;;;;;;16.27;3.38;;;17.10;99.90;;;;;;4997783;28;25102;-63
2022/06/10 06:24:35;;;;;;;19.50;4.32;;;17.00;99.90;;;;;;4997083;28;25132;-63
2022/06/10 06:27:01;;;;;;;17.15;3.60;;;17.10;99.90;;;;;;5001080;28;25056;-63
2022/06/10 06:29:27;;;;;;;12.48;4.30;;;17.00;99.90;;;;;;4997543;28;25074;-62
2022/06/10 06:31:52;;;;;;;13.90;3.90;;;17.20;99.90;;;;;;5001397;28;25102;-62
2022/06/10 06:34:20;;;;;;;15.40;4.13;;;17.20;99.90;;;;;;4995606;28;25126;-63
2022/06/10 06:36:47;;;;;;;16.13;4.70;;;17.20;99.90;;;;;;4998620;28;25053;-62
2022/06/10 06:39:16;;;;;;;15.30;3.70;;;17.30;99.90;;;;;;4999054;28;25056;-62
2022/06/10 06:41:42;;;;;;;14.30;3.40;;;17.40;99.90;;;;;;5003612;28;25109;-63
2022/06/10 06:44:08;;;;;;;20.05;4.20;;;17.40;99.90;;;;;;4990211;28;25149;-62
2022/06/10 06:46:35;;;;;;;14.02;4.18;;;17.50;99.90;;;;;;4986355;28;25074;-63
2022/06/10 06:49:03;;;;;;;20.10;5.50;;;17.60;99.90;;;;;;4999229;28;25076;-64
2022/06/10 06:51:28;;;;;;;14.85;3.90;;;17.70;99.90;;;;;;4997142;28;25126;-62
2022/06/10 06:53:54;;;;;;;19.75;4.47;;;17.70;99.90;;;;;;4989175;28;25065;-63
2022/06/10 06:56:20;;;;;;;14.10;4.65;;;17.70;99.90;;;;;;4994077;28;25065;-63
2022/06/10 06:58:45;;;;;;;12.18;4.78;;;17.80;99.90;;;;;;5001584;28;25048;-63
2022/06/10 07:01:11;;;;;;;18.10;4.85;;;18.00;99.90;;;;;;4995766;28;25030;-63
2022/06/10 07:03:36;;;;;;;21.60;5.78;;;18.20;99.90;;;;;;4999464;28;25098;-63
2022/06/10 07:06:02;;;;;;;16.00;5.30;;;18.10;99.90;;;;;;4998542;28;25060;-63
2022/06/10 07:08:31;;;;;;;14.93;4.88;;;18.00;99.90;;;;;;4999375;28;25102;-64
2022/06/10 07:11:01;;;;;;;15.82;5.18;;;17.80;99.90;;;;;;4995052;28;25086;-64
2022/06/10 07:13:27;;;;;;;18.17;5.80;;;17.80;99.90;;;;;;4996599;28;25081;-64
2022/06/10 07:15:54;;;;;;;16.23;5.30;;;18.10;99.90;;;;;;4997831;28;25068;-63
2022/06/10 07:18:21;;;;;;;15.10;4.78;;;18.20;99.90;;;;;;4996566;28;25072;-62
2022/06/10 07:20:46;;;;;;;16.00;5.43;;;18.30;99.90;;;;;;4997445;28;25134;-67
2022/06/10 07:23:12;;;;;;;17.25;5.65;;;18.40;99.90;;;;;;4997236;28;25105;-63
2022/06/10 07:25:38;;;;;;;12.48;5.20;;;18.60;99.90;;;;;;4994349;28;25073;-62
2022/06/10 07:28:04;;;;;;;16.60;6.18;;;18.80;99.90;;;;;;4995283;28;25123;-63
2022/06/10 07:30:31;;;;;;;16.33;5.55;;;18.90;99.90;;;;;;4992771;28;25058;-63
2022/06/10 07:32:57;;;;;;;20.02;6.35;;;19.00;99.90;;;;;;4992808;28;25159;-63
2022/06/10 07:35:24;;;;;;;13.98;4.75;;;18.90;99.90;;;;;;4998234;28;25096;-63
2022/06/10 07:37:50;;;;;;;18.45;5.88;;;19.00;99.90;;;;;;4993021;28;25182;-64
2022/06/10 07:43:14;;;;;;;19.98;5.43;;;18.70;99.90;;;;;;4998944;28;25074;-65
2022/06/10 07:45:41;;;;;;;15.30;4.28;;;18.60;99.90;;;;;;4998479;28;25062;-64
2022/06/10 07:48:07;;;;;;;23.35;5.90;;;18.40;99.90;;;;;;4999668;28;25089;-62
2022/06/10 07:50:32;;;;;;;14.02;5.55;;;18.50;99.90;;;;;;4998429;28;25092;-64
2022/06/10 07:52:58;;;;;;;14.90;5.20;;;18.50;99.90;;;;;;4997162;28;25098;-61
2022/06/10 07:55:24;;;;;;;17.77;5.88;;;18.40;99.90;;;;;;4997084;28;25090;-64
2022/06/10 07:57:51;;;;;;;15.75;5.43;;;18.50;99.90;;;;;;4994443;28;25165;-63
2022/06/10 08:00:17;;;;;;;13.57;4.80;;;18.50;99.90;;;;;;5001990;28;25048;-62
2022/06/10 08:02:43;;;;;;;11.60;4.82;;;18.60;99.90;;;;;;4995717;28;25063;-63
2022/06/10 08:05:13;;;;;;;15.25;5.30;;;18.80;99.90;;;;;;4997186;28;25060;-63
2022/06/10 08:07:39;;;;;;;12.00;4.95;;;19.00;99.90;;;;;;5011074;28;25096;-64
2022/06/10 08:10:06;;;;;;;12.40;4.32;;;18.90;99.90;;;;;;4992025;28;25120;-62
2022/06/10 08:12:32;;;;;;;16.88;4.55;;;19.00;99.90;;;;;;4994835;28;25139;-63
2022/06/10 08:14:57;;;;;;;13.93;4.93;;;19.20;99.90;;;;;;4998094;28;25058;-63
2022/06/10 08:17:23;;;;;;;12.70;4.35;;;19.20;99.90;;;;;;4988501;28;25086;-63
2022/06/10 08:19:49;;;;;;;17.65;5.28;;;19.00;99.90;;;;;;5000684;28;25086;-64
2022/06/10 08:22:32;;;;;;;13.45;5.00;;;18.90;99.90;;;;;;4996428;28;25138;-62
2022/06/10 08:24:59;;;;;;;12.18;4.70;;;18.90;99.90;;;;;;4994969;28;25125;-62
2022/06/10 08:27:25;;;;;;;13.35;4.20;;;19.10;99.90;;;;;;4990050;28;25080;-62
2022/06/10 08:29:51;;;;;;;18.48;4.28;;;19.40;99.90;;;;;;4994242;28;25091;-63
2022/06/10 08:32:16;;;;;;;16.27;4.03;;;19.60;99.90;;;;;;4995393;28;25102;-64
2022/06/10 08:34:42;;;;;;;12.82;3.88;;;19.80;99.90;;;;;;4998555;28;25124;-62
2022/06/10 08:37:09;;;;;;;21.05;4.55;;;19.90;99.90;;;;;;4997969;28;25058;-63
2022/06/10 08:39:35;;;;;;;12.43;3.67;;;20.20;99.90;;;;;;4995316;28;25073;-63
2022/06/10 08:42:04;;;;;;;10.00;3.78;;;20.70;99.90;;;;;;4992530;28;25128;-63
2022/06/10 08:44:52;;;;;;;10.93;3.97;;;20.80;99.90;;;;;;4993500;28;25101;-63
2022/06/10 08:47:33;;;;;;;12.93;3.35;;;21.00;99.90;;;;;;4994833;28;25078;-64
2022/06/10 08:50:10;;;;;;;14.27;3.65;;;21.00;99.90;;;;;;4974674;28;25052;-63
2022/06/10 08:52:54;;;;;;;11.60;3.33;;;20.90;99.90;;;;;;4996767;28;25072;-63
2022/06/10 08:55:56;;;;;;;11.98;3.10;;;20.60;99.90;;;;;;5008682;28;25094;-64
2022/06/10 08:58:27;;;;;;;9.77;2.95;;;20.40;99.90;;;;;;4997213;28;25128;-64
2022/06/10 09:00:58;;;;;;;12.25;3.28;;;20.60;99.90;;;;;;4993373;28;25073;-64
2022/06/10 09:03:40;;;;;;;11.75;2.92;;;20.40;99.90;;;;;;4995147;28;25086;-63
2022/06/10 09:06:12;;;;;;;11.98;3.70;;;20.40;99.90;;;;;;4991243;28;25060;-64
2022/06/10 09:08:40;;;;;;;;;;;20.40;99.90;;;;;;5003188;28;25070;-65
2022/06/10 09:11:37;;;;;;;9.30;3.38;;;20.10;99.90;;;;;;4996009;28;25082;-64
2022/06/10 09:14:18;;;;;;;10.35;3.05;;;20.20;99.90;;;;;;4984579;28;25083;-63
2022/06/10 09:17:02;;;;;;;11.90;3.20;;;20.20;99.90;;;;;;4995024;28;25064;-63
2022/06/10 09:19:58;;;;;;;9.95;2.67;;;20.20;99.90;;;;;;4994391;28;25079;-64
2022/06/10 09:22:37;;;;;;;10.73;3.55;;;20.40;99.90;;;;;;4983721;28;25079;-63
2022/06/10 09:25:30;;;;;;;8.43;2.83;;;20.60;99.90;;;;;;4983510;28;25074;-64
2022/06/10 09:27:58;;;;;;;9.70;3.22;;;20.80;99.90;;;;;;4979579;28;25087;-66
2022/06/10 09:30:45;;;;;;;11.55;3.10;;;21.30;99.90;;;;;;4988344;28;25081;-64
2022/06/10 09:33:56;;;;;;;9.90;2.70;;;21.60;99.90;;;;;;4988908;28;25074;-64
2022/06/10 09:36:45;;;;;;;7.32;2.72;;;21.50;99.90;;;;;;4989835;28;25120;-64
2022/06/10 09:42:13;;;;;;;9.93;2.53;;;22.00;99.90;;;;;;4994874;28;25078;-63
2022/06/10 09:44:46;;;;;;;12.15;2.92;;;21.60;99.90;;;;;;4994024;28;25139;-64
2022/06/10 09:47:32;;;;;;;10.10;3.33;;;21.50;99.90;;;;;;4992079;28;25128;-64
2022/06/10 09:50:21;;;;;;;11.57;2.75;;;21.30;99.90;;;;;;4992576;28;25067;-65
2022/06/10 09:53:35;;;;;;;8.25;2.92;;;21.30;99.90;;;;;;4999822;28;25049;-65
2022/06/10 09:56:23;;;;;;;6.47;2.30;;;21.90;99.90;;;;;;4994078;28;25137;-65
2022/06/10 09:59:03;;;;;;;8.25;2.60;;;22.00;99.90;;;;;;4997918;28;25059;-65
2022/06/10 10:01:54;;;;;;;10.07;2.50;;;22.70;99.90;;;;;;4997368;28;25065;-65
2022/06/10 10:04:53;;;;;;;8.38;2.10;;;22.60;99.90;;;;;;4999673;28;25051;-65
2022/06/10 10:07:19;;;;;;;10.90;2.90;;;22.60;99.90;;;;;;4994315;28;25103;-64
2022/06/10 10:09:57;;;;;;;7.50;2.65;;;22.60;99.90;;;;;;5004741;28;25145;-63
2022/06/10 10:12:51;;;;;;;9.93;2.88;;;22.50;99.90;;;;;;5005902;28;25086;-65
2022/06/10 10:15:25;;;;;;;7.95;2.70;;;22.20;99.90;;;;;;4997694;28;25067;-64
2022/06/10 10:18:25;;;;;;;7.53;2.50;;;21.80;99.90;;;;;;5002219;28;25144;-66
2022/06/10 10:21:13;;;;;;;11.48;2.65;;;21.90;99.90;;;;;;5000024;28;25071;-65
2022/06/10 10:23:44;;;;;;;10.00;3.63;;;21.90;99.90;;;;;;4996949;28;25053;-64
2022/06/10 10:26:36;;;;;;;7.35;3.63;;;21.80;99.90;;;;;;5002411;28;25055;-64
2022/06/10 10:29:16;;;;;;;9.02;3.75;;;21.80;99.90;;;;;;4986965;28;25121;-65
2022/06/10 10:32:07;;;;;;;11.13;4.40;;;21.90;99.90;;;;;;4996903;28;25139;-64
2022/06/10 10:34:36;;;;;;;9.55;3.47;;;21.70;99.90;;;;;;4995643;28;24964;-64
2022/06/10 10:37:05;;;;;;;10.90;3.42;;;21.70;99.90;;;;;;4993093;28;25146;-64
2022/06/10 10:39:38;;;;;;;11.27;3.58;;;21.30;99.90;;;;;;4996164;28;25071;-64
2022/06/10 10:42:16;;;;;;;7.25;3.53;;;21.60;99.90;;;;;;5001463;28;25129;-64
2022/06/10 10:44:45;;;;;;;10.38;3.15;;;22.20;99.90;;;;;;4994133;28;25065;-65
2022/06/10 10:47:10;;;;;;;9.95;3.92;;;22.20;99.90;;;;;;4995714;28;25057;-66
2022/06/10 10:49:50;;;;;;;10.70;2.60;;;21.90;99.90;;;;;;5003081;28;25099;-65
2022/06/10 10:52:33;;;;;;;7.82;2.65;;;21.90;99.90;;;;;;4993954;28;25065;-66
2022/06/10 10:55:13;;;;;;;7.53;2.60;;;22.40;99.90;;;;;;4994622;28;25052;-64
2022/06/10 10:58:13;;;;;;;11.43;2.90;;;23.10;99.90;;;;;;5002501;28;25050;-64
2022/06/10 11:00:42;;;;;;;10.45;3.90;;;23.50;99.80;;;;;;4992881;28;25069;-64
2022/06/10 11:03:32;;;;;;;9.25;3.03;;;23.30;99.90;;;;;;4996569;28;25188;-64
2022/06/10 11:06:04;;;;;;;7.18;3.58;;;23.50;99.90;;;;;;4994537;28;25067;-65
2022/06/10 11:08:34;;;;;;;10.52;3.28;;;24.00;97.30;;;;;;4994572;28;25078;-64
2022/06/10 11:11:12;;;;;;;8.10;2.45;;;24.20;95.30;;;;;;4997665;28;25150;-65
2022/06/10 11:13:41;;;;;;;11.32;2.60;;;24.10;92.40;;;;;;4990167;28;25087;-64
2022/06/10 11:16:17;;;;;;;5.22;2.58;;;23.40;94.40;;;;;;4989692;28;25120;-62
2022/06/10 11:18:46;;;;;;;6.60;2.53;;;23.00;97.00;;;;;;4999692;28;25094;-63
2022/06/10 11:21:12;;;;;;;6.40;2.40;;;22.70;97.50;;;;;;4993698;28;25052;-63
2022/06/10 11:23:50;;;;;;;14.48;5.47;;;22.40;99.50;;;;;;4989098;28;25081;-64
2022/06/10 11:26:18;;;;;;;7.60;2.70;;;22.10;99.90;;;;;;4997378;28;25150;-64
2022/06/10 11:28:44;;;;;;;9.45;3.00;;;22.00;99.90;;;;;;4989942;28;25136;-64
2022/06/10 11:31:40;;;;;;;11.15;2.65;;;21.90;99.90;;;;;;4994775;28;25066;-64
2022/06/10 11:34:16;;;;;;;7.13;2.53;;;22.10;99.90;;;;;;4994577;28;25058;-62
2022/06/10 11:36:48;;;;;;;8.45;2.95;;;22.30;99.90;;;;;;4989888;28;25092;-64
2022/06/10 11:39:17;;;;;;;10.45;3.17;;;23.20;99.90;;;;;;4993707;28;25065;-62
2022/06/10 11:42:09;;;;;;;9.02;2.47;;;23.80;98.00;;;;;;5000524;28;25066;-64
2022/06/10 11:44:49;;;;;;;8.80;3.38;;;23.70;98.30;;;;;;4987620;28;25074;-63
2022/06/10 11:47:53;;;;;;;5.78;2.65;;;23.70;96.10;;;;;;4993435;28;25076;-66
2022/06/10 11:50:27;;;;;;;7.05;2.50;;;23.10;99.60;;;;;;4955200;28;25078;-66
2022/06/10 11:53:02;;;;;;;10.32;2.75;;;22.70;99.90;;;;;;4996194;28;25081;-63
2022/06/10 11:55:31;;;;;;;6.80;2.10;;;22.60;99.90;;;;;;4993509;28;25122;-65
2022/06/10 12:00:58;;;;;;;21.25;2.65;;;22.80;99.90;;;;;;4995047;28;25079;-65
2022/06/10 12:03:32;;;;;;;7.63;2.58;;;23.50;99.90;;;;;;4999455;28;25049;-64
2022/06/10 12:06:19;;;;;;;7.82;2.60;;;23.60;99.20;;;;;;4996602;28;25111;-64
2022/06/10 12:08:57;;;;;;;7.75;3.10;;;23.50;99.20;;;;;;4999117;28;25069;-64
2022/06/10 12:11:40;;;;;;;5.25;2.53;;;23.50;97.60;;;;;;5004531;28;25075;-64
2022/06/10 12:14:27;;;;;;;9.85;2.45;;;23.70;99.40;;;;;;4995968;28;25054;-65
2022/06/10 12:17:06;;;;;;;10.40;3.30;;;23.70;99.80;;;;;;5001447;28;25174;-64
2022/06/10 12:19:39;;;;;;;12.13;3.45;;;23.70;98.50;;;;;;5001160;28;25082;-64
2022/06/10 12:22:08;;;;;;;8.05;3.50;;;23.50;98.60;;;;;;4991005;28;25054;-64
2022/06/10 12:24:33;;;;;;;7.90;4.25;;;23.40;99.90;;;;;;4998825;28;25077;-65
2022/06/10 12:27:06;;;;;;;5.93;3.33;;;23.00;99.90;;;;;;4995706;28;25053;-64
2022/06/10 12:29:50;;;;;;;7.80;3.50;;;23.20;99.90;;;;;;4997256;28;25068;-64
2022/06/10 12:32:30;;;;;;;11.93;3.90;;;23.30;99.90;;;;;;4989247;28;25155;-64
2022/06/10 12:35:07;;;;;;;6.70;3.05;;;23.30;99.90;;;;;;4994353;28;25076;-64
2022/06/10 12:37:56;;;;;;;8.80;3.90;;;23.30;99.90;;;;;;4989541;28;25481;-64
2022/06/10 12:40:34;;;;;;;9.10;3.50;;;23.40;99.90;;;;;;4994553;28;25168;-65
2022/06/10 12:43:10;;;;;;;8.93;3.70;;;23.60;99.90;;;;;;4991435;28;25080;-64
2022/06/10 12:45:39;;;;;;;11.18;3.47;;;23.80;99.90;;;;;;4990730;28;25062;-64
2022/06/10 12:48:44;;;;;;;6.53;3.10;;;23.80;99.40;;;;;;4996368;28;25079;-67
2022/06/10 12:51:13;;;;;;;10.13;3.65;;;23.90;99.90;;;;;;4981923;28;25062;-64
2022/06/10 12:54:03;;;;;;;8.02;3.03;;;23.80;99.90;;;;;;5001427;28;25092;-64
2022/06/10 12:56:32;;;;;;;12.80;4.68;;;23.30;99.90;;;;;;4997073;28;25129;-64
2022/06/10 12:59:04;;;;;;;6.70;3.25;;;23.20;99.90;;;;;;4995358;28;25085;-65
2022/06/10 13:01:29;;;;;;;9.20;3.72;;;23.00;99.90;;;;;;4993213;28;25072;-64
2022/06/10 13:04:10;;;;;;;7.97;3.15;;;22.70;99.90;;;;;;4999031;28;25126;-65
2022/06/10 13:06:41;;;;;;;8.65;3.13;;;22.80;99.90;;;;;;4994495;28;25072;-64
2022/06/10 13:09:10;;;;;;;11.60;4.28;;;22.80;99.90;;;;;;4996022;28;25066;-64
2022/06/10 13:11:36;;;;;;;7.93;3.47;;;22.80;99.90;;;;;;4999633;28;25068;-66
2022/06/10 13:14:30;;;;;;;6.28;3.90;;;22.80;99.90;;;;;;4993981;28;25174;-63
2022/06/10 13:16:59;;;;;;;7.45;3.30;;;22.90;99.90;;;;;;4980648;28;25078;-63
2022/06/10 13:19:32;;;;;;;9.50;4.20;;;22.80;99.90;;;;;;5004269;28;25066;-63
2022/06/10 13:21:59;;;;;;;10.73;4.32;;;22.60;99.90;;;;;;4986990;28;25081;-65
2022/06/10 13:24:25;;;;;;;10.95;3.40;;;22.50;99.90;;;;;;4995007;28;25082;-65
2022/06/10 13:26:51;;;;;;;10.10;4.13;;;22.40;99.90;;;;;;4996446;28;25060;-63